createdAt,value
2018-04-18T00:00:33.536Z,74.08
2018-04-18T00:03:02.431Z,76.26
2018-04-18T00:05:31.403Z,78.20
2018-04-18T00:08:03.973Z,79.62
2018-04-18T00:10:33.181Z,79.97
2018-04-18T00:13:02.170Z,80.33
2018-04-18T00:15:32.114Z,80.16
2018-04-18T00:18:01.076Z,79.82
2018-04-18T00:20:30.311Z,80.15
2018-04-18T00:23:00.185Z,80.28
2018-04-18T00:25:29.295Z,80.35
2018-04-18T00:27:58.316Z,80.42
2018-04-18T00:30:28.344Z,78.98
2018-04-18T00:32:58.006Z,79.04
2018-04-18T00:35:26.925Z,79.80
2018-04-18T00:37:58.660Z,80.49
2018-04-18T00:40:28.053Z,82.71
2018-04-18T00:42:56.855Z,85.80
2018-04-18T00:45:25.933Z,87.41
2018-04-18T00:47:54.950Z,88.49
2018-04-18T00:50:23.836Z,89.12
2018-04-18T00:52:52.959Z,89.65
2018-04-18T00:55:22.233Z,90.24
2018-04-18T00:57:52.156Z,90.44
2018-04-18T01:00:22.309Z,90.40
2018-04-18T01:02:51.468Z,90.98
2018-04-18T01:05:20.564Z,91.71
2018-04-18T01:10:24.925Z,91.75
2018-04-18T01:12:53.900Z,91.83
2018-04-18T01:15:22.993Z,92.08
2018-04-18T01:20:26.024Z,92.49
2018-04-18T01:22:54.988Z,92.84
2018-04-18T01:25:23.983Z,93.22
2018-04-18T01:27:52.898Z,93.51
2018-04-18T01:30:21.867Z,93.42
2018-04-18T01:32:50.963Z,93.62
2018-04-18T01:35:20.161Z,92.91
2018-04-18T01:37:49.152Z,93.41
2018-04-18T01:40:19.807Z,93.40
2018-04-18T01:42:48.751Z,93.41
2018-04-18T01:45:18.635Z,93.03
2018-04-18T01:50:21.599Z,94.60
2018-04-18T01:52:50.497Z,95.36
2018-04-18T01:55:20.336Z,95.97
2018-04-18T01:57:49.365Z,95.51
2018-04-18T02:00:19.051Z,93.91
2018-04-18T02:02:49.175Z,92.61
2018-04-18T02:05:19.108Z,91.55
2018-04-18T02:07:48.182Z,92.10
2018-04-18T02:10:20.312Z,92.42
2018-04-18T02:12:50.130Z,93.22
2018-04-18T02:15:19.201Z,92.72
2018-04-18T02:17:49.234Z,92.22
2018-04-18T02:20:18.234Z,91.80
2018-04-18T02:22:47.228Z,91.83
2018-04-18T02:25:16.322Z,90.84
2018-04-18T02:27:45.214Z,91.28
2018-04-18T02:30:14.142Z,91.22
2018-04-18T02:32:43.902Z,91.37
2018-04-18T02:35:13.322Z,91.77
2018-04-18T02:37:43.032Z,92.32
2018-04-18T02:40:13.726Z,93.05
2018-04-18T02:42:42.925Z,92.78
2018-04-18T02:45:11.857Z,93.44
2018-04-18T02:47:42.492Z,94.15
2018-04-18T02:50:11.592Z,94.12
2018-04-18T02:52:40.511Z,94.25
2018-04-18T02:55:09.488Z,94.58
2018-04-18T02:57:38.413Z,94.97
2018-04-18T03:00:09.059Z,95.50
2018-04-18T03:02:38.128Z,95.89
2018-04-18T03:05:07.090Z,95.84
2018-04-18T03:07:36.073Z,96.93
2018-04-18T03:10:06.173Z,97.09
2018-04-18T03:12:35.297Z,97.74
2018-04-18T03:15:04.399Z,97.78
2018-04-18T03:17:33.493Z,98.37
2018-04-18T03:20:02.628Z,98.54
2018-04-18T03:22:32.329Z,98.75
2018-04-18T03:25:01.369Z,98.82
2018-04-18T03:27:30.285Z,98.82
2018-04-18T03:29:59.309Z,99.17
2018-04-18T03:32:28.514Z,99.44
2018-04-18T03:34:57.470Z,99.24
2018-04-18T03:37:26.465Z,98.83
2018-04-18T03:39:56.769Z,98.53
2018-04-18T03:42:25.930Z,98.37
2018-04-18T03:44:54.878Z,97.96
2018-04-18T03:47:26.057Z,97.47
2018-04-18T03:49:55.097Z,97.17
2018-04-18T03:52:24.008Z,97.47
2018-04-18T03:54:53.107Z,97.18
2018-04-18T03:57:22.031Z,96.86
2018-04-18T03:59:51.092Z,96.66
2018-04-18T04:02:24.796Z,96.11
2018-04-18T04:04:53.892Z,95.73
2018-04-18T04:07:23.197Z,94.45
2018-04-18T04:09:53.010Z,92.68
2018-04-18T04:12:22.003Z,90.82
2018-04-18T04:14:51.102Z,88.57
2018-04-18T04:20:17.867Z,83.24
2018-04-18T04:22:59.352Z,81.84
2018-04-18T04:25:28.340Z,79.32
2018-04-18T04:27:57.530Z,75.81
2018-04-18T04:33:01.779Z,76.14
2018-04-18T04:35:30.665Z,75.50
2018-04-18T04:38:00.694Z,77.68
2018-04-18T04:40:29.786Z,79.24
2018-04-18T04:42:59.813Z,79.06
2018-04-18T04:45:29.066Z,81.18
2018-04-18T04:47:58.170Z,80.75
2018-04-18T04:50:27.101Z,80.40
2018-04-18T04:52:56.200Z,78.61
2018-04-18T04:55:25.190Z,74.46
2018-04-18T04:57:54.218Z,74.53
2018-04-18T05:02:58.008Z,70.19
2018-04-18T05:05:27.858Z,70.70
2018-04-18T05:08:04.144Z,73.76
2018-04-18T05:10:34.821Z,74.08
2018-04-18T05:13:04.655Z,74.46
2018-04-18T05:15:34.039Z,76.70
2018-04-18T05:18:03.033Z,78.21
2018-04-18T05:23:06.443Z,79.89
2018-04-18T05:25:36.673Z,80.90
2018-04-18T05:28:05.880Z,81.32
2018-04-18T05:30:34.901Z,83.20
2018-04-18T05:33:05.934Z,84.33
2018-04-18T05:35:38.583Z,84.92
2018-04-18T05:38:07.630Z,85.03
2018-04-18T05:40:36.700Z,83.80
2018-04-18T05:43:05.675Z,82.96
2018-04-18T05:45:34.768Z,83.32
2018-04-18T05:48:04.431Z,83.42
2018-04-18T05:50:33.574Z,81.54
2018-04-18T05:53:02.559Z,76.58
2018-04-18T05:55:31.663Z,72.58
2018-04-18T05:58:03.313Z,69.71
2018-04-18T06:00:32.321Z,64.76
2018-04-18T06:03:01.417Z,59.64
2018-04-18T06:05:30.507Z,54.87
2018-04-18T06:07:59.505Z,52.46
2018-04-18T06:10:28.495Z,49.32
2018-04-18T06:12:58.382Z,44.89
2018-04-18T06:15:27.402Z,43.20
2018-04-18T06:17:56.297Z,42.32
2018-04-18T06:20:26.935Z,40.92
2018-04-18T06:22:55.862Z,42.46
2018-04-18T06:25:24.860Z,43.91
2018-04-18T06:27:56.724Z,43.46
2018-04-18T06:30:25.765Z,40.26
2018-04-18T06:32:54.663Z,37.76
2018-04-18T06:35:23.755Z,37.89
2018-04-18T06:37:53.553Z,36.37
2018-04-18T06:40:22.464Z,36.46
2018-04-18T06:45:25.575Z,40.43
2018-04-18T06:47:54.563Z,37.47
2018-04-18T06:50:23.604Z,36.33
2018-04-18T06:52:52.499Z,35.09
2018-04-18T06:55:21.510Z,36.17
2018-04-18T06:57:52.319Z,36.86
2018-04-18T07:00:21.239Z,41.34
2018-04-18T07:02:50.369Z,40.52
2018-04-18T07:05:19.374Z,39.13
2018-04-18T07:07:48.504Z,38.25
2018-04-18T07:10:18.275Z,40.79
2018-04-18T07:12:47.993Z,41.07
2018-04-18T07:15:16.885Z,40.97
2018-04-18T07:17:45.769Z,38.86
2018-04-18T07:20:14.873Z,40.37
2018-04-18T07:22:43.860Z,40.62
2018-04-18T07:25:12.820Z,41.13
2018-04-18T07:30:17.401Z,45.85
2018-04-18T07:32:46.608Z,45.17
2018-04-18T07:35:16.588Z,47.00
2018-04-18T07:37:45.611Z,48.02
2018-04-18T07:40:14.541Z,48.33
2018-04-18T07:42:44.237Z,49.16
2018-04-18T07:45:13.313Z,51.02
2018-04-18T07:47:42.273Z,51.25
2018-04-18T07:50:13.146Z,52.71
2018-04-18T07:52:42.039Z,53.76
2018-04-18T07:55:11.587Z,53.65
2018-04-18T07:57:42.476Z,55.42
2018-04-18T08:00:11.611Z,56.54
2018-04-18T08:02:42.683Z,57.02
2018-04-18T08:05:12.057Z,57.44
2018-04-18T08:07:40.894Z,58.50
2018-04-18T08:10:09.745Z,57.93
2018-04-18T08:12:38.759Z,58.95
2018-04-18T08:15:07.589Z,59.32
2018-04-18T08:17:36.394Z,57.64
2018-04-18T08:20:05.275Z,57.98
2018-04-18T08:22:34.238Z,60.25
2018-04-18T08:25:03.213Z,59.37
2018-04-18T08:27:32.826Z,58.24
2018-04-18T08:30:01.712Z,59.61
2018-04-18T08:32:30.592Z,59.47
2018-04-18T08:37:33.945Z,60.86
2018-04-18T08:40:02.773Z,59.65
2018-04-18T08:42:33.549Z,59.90
2018-04-18T08:45:02.379Z,58.11
2018-04-18T08:47:31.167Z,58.35
2018-04-18T08:50:00.148Z,59.03
2018-04-18T08:52:30.083Z,57.76
2018-04-18T08:54:58.968Z,56.97
2018-04-18T08:57:27.818Z,56.81
2018-04-18T08:59:56.711Z,57.31
2018-04-18T09:02:25.571Z,56.65
2018-04-18T09:05:00.588Z,55.51
2018-04-18T09:07:29.716Z,55.90
2018-04-18T09:09:58.702Z,54.59
2018-04-18T09:12:27.574Z,53.96
2018-04-18T09:14:56.420Z,53.49
2018-04-18T09:17:25.305Z,53.10
2018-04-18T09:22:28.612Z,51.48
2018-04-18T09:24:57.412Z,51.11
2018-04-18T09:27:26.250Z,50.67
2018-04-18T09:29:55.054Z,54.21
2018-04-18T09:32:23.853Z,57.50
2018-04-18T09:34:55.328Z,56.19
2018-04-18T09:37:27.564Z,56.19
2018-04-18T09:39:56.522Z,55.92
2018-04-18T09:42:26.444Z,55.24
2018-04-18T09:44:56.487Z,54.64
2018-04-18T09:49:59.827Z,50.42
2018-04-18T09:52:28.619Z,50.08
2018-04-18T09:54:57.466Z,50.92
2018-04-18T09:57:26.334Z,53.58
2018-04-18T09:59:55.193Z,56.31
2018-04-18T10:02:30.957Z,55.50
2018-04-18T10:05:05.177Z,55.92
2018-04-18T10:10:07.909Z,56.17
2018-04-18T10:12:37.318Z,56.44
2018-04-18T10:15:07.197Z,57.02
2018-04-18T10:17:36.221Z,56.32
2018-04-18T10:20:05.266Z,57.60
2018-04-18T10:22:34.519Z,58.79
2018-04-18T10:25:03.512Z,58.86
2018-04-18T10:27:33.332Z,59.46
2018-04-18T10:30:02.414Z,59.95
2018-04-18T10:32:31.370Z,61.69
2018-04-18T10:35:00.418Z,61.27
2018-04-18T10:37:31.388Z,60.37
2018-04-18T10:40:00.213Z,59.88
2018-04-18T10:42:29.116Z,60.64
2018-04-18T10:44:58.810Z,61.95
2018-04-18T10:47:27.626Z,63.39
2018-04-18T10:49:57.389Z,61.72
2018-04-18T10:52:28.868Z,61.23
2018-04-18T10:54:57.680Z,61.47
2018-04-18T10:57:26.533Z,61.51
2018-04-18T11:02:29.550Z,65.73
2018-04-18T11:04:58.482Z,66.41
2018-04-18T11:07:28.276Z,66.49
2018-04-18T11:09:57.094Z,67.39
2018-04-18T11:12:25.880Z,67.68
2018-04-18T11:14:54.761Z,67.23
2018-04-18T11:17:23.574Z,66.59
2018-04-18T11:19:52.368Z,64.57
2018-04-18T11:22:21.209Z,62.72
2018-04-18T11:24:50.067Z,62.97
2018-04-18T11:27:18.884Z,61.88
2018-04-18T11:29:48.624Z,63.44
2018-04-18T11:32:18.493Z,63.09
2018-04-18T11:34:47.307Z,61.51
2018-04-18T11:37:16.181Z,59.97
2018-04-18T11:39:45.628Z,59.57
2018-04-18T11:42:14.511Z,58.60
2018-04-18T11:44:43.479Z,58.83
2018-04-18T11:47:12.283Z,58.53
2018-04-18T11:49:41.143Z,58.12
2018-04-18T11:52:10.069Z,58.96
2018-04-18T11:54:38.896Z,58.48
2018-04-18T11:57:07.738Z,59.07
2018-04-18T11:59:38.246Z,60.86
2018-04-18T12:02:07.838Z,59.75
2018-04-18T12:04:37.236Z,59.27
2018-04-18T12:07:07.814Z,59.37
2018-04-18T12:09:36.827Z,59.33
2018-04-18T12:12:09.305Z,58.39
2018-04-18T12:14:40.915Z,58.52
2018-04-18T12:17:12.762Z,58.80
2018-04-18T12:19:42.448Z,58.55
2018-04-18T12:22:11.440Z,58.59
2018-04-18T12:24:40.492Z,58.11
2018-04-18T12:27:09.409Z,57.78
2018-04-18T12:29:38.308Z,58.45
2018-04-18T12:32:07.441Z,57.78
2018-04-18T12:34:36.393Z,58.29
2018-04-18T12:37:05.375Z,57.59
2018-04-18T12:39:34.380Z,54.66
2018-04-18T12:42:03.478Z,52.09
2018-04-18T12:44:32.474Z,52.39
2018-04-18T12:47:01.673Z,51.42
2018-04-18T12:49:30.592Z,50.32
2018-04-18T12:51:59.568Z,50.27
2018-04-18T12:54:28.547Z,49.98
2018-04-18T12:56:57.477Z,51.75
2018-04-18T12:59:27.462Z,51.22
2018-04-18T13:04:30.709Z,51.26
2018-04-18T13:06:59.695Z,51.40
2018-04-18T13:09:28.660Z,51.44
2018-04-18T13:11:57.750Z,49.83
2018-04-18T13:14:26.852Z,49.14
2018-04-18T13:16:56.865Z,49.15
2018-04-18T13:19:27.546Z,49.07
2018-04-18T13:21:58.591Z,48.64
2018-04-18T13:24:28.561Z,50.53
2018-04-18T13:26:57.656Z,50.54
2018-04-18T13:29:26.753Z,51.37
2018-04-18T13:31:55.845Z,49.93
2018-04-18T13:34:25.054Z,50.43
2018-04-18T13:36:54.826Z,51.53
2018-04-18T13:39:23.750Z,51.23
2018-04-18T13:41:52.675Z,49.76
2018-04-18T13:44:25.069Z,50.08
2018-04-18T13:46:54.043Z,50.85
2018-04-18T13:49:23.009Z,50.82
2018-04-18T13:51:52.990Z,50.35
2018-04-18T13:54:21.918Z,50.45
2018-04-18T13:56:50.948Z,49.32
2018-04-18T13:59:22.730Z,49.21
2018-04-18T14:01:51.660Z,49.23
2018-04-18T14:04:20.658Z,50.11
2018-04-18T14:09:24.631Z,50.23
2018-04-18T14:11:54.502Z,48.53
2018-04-18T14:14:23.627Z,50.16
2018-04-18T14:16:52.697Z,50.04
2018-04-18T14:19:21.725Z,48.23
2018-04-18T14:21:50.679Z,48.73
2018-04-18T14:24:19.681Z,49.06
2018-04-18T14:26:49.297Z,47.89
2018-04-18T14:29:18.383Z,47.83
2018-04-18T14:31:47.763Z,47.53
2018-04-18T14:34:16.677Z,48.76
2018-04-18T14:36:45.673Z,47.75
2018-04-18T14:39:15.658Z,48.13
2018-04-18T14:41:44.602Z,47.90
2018-04-18T14:44:13.573Z,47.79
2018-04-18T14:46:43.287Z,48.33
2018-04-18T14:49:12.281Z,47.06
2018-04-18T14:51:41.871Z,48.32
2018-04-18T14:54:10.782Z,47.85
2018-04-18T14:56:39.805Z,48.19
2018-04-18T14:59:10.300Z,46.37
2018-04-18T15:01:39.299Z,46.22
2018-04-18T15:04:09.210Z,45.35
2018-04-18T15:06:39.024Z,46.38
2018-04-18T15:09:08.061Z,46.65
2018-04-18T15:11:37.010Z,46.37
2018-04-18T15:14:08.590Z,46.79
2018-04-18T15:16:37.558Z,47.07
2018-04-18T15:19:07.488Z,46.74
2018-04-18T15:21:36.501Z,47.43
2018-04-18T15:24:05.671Z,46.73
2018-04-18T15:26:35.544Z,47.41
2018-04-18T15:29:04.702Z,46.51
2018-04-18T15:31:33.995Z,46.83
2018-04-18T15:34:03.899Z,47.43
2018-04-18T15:36:32.863Z,47.59
2018-04-18T15:39:01.900Z,47.95
2018-04-18T15:41:30.885Z,48.28
2018-04-18T15:43:59.835Z,47.58
2018-04-18T15:46:28.869Z,47.58
2018-04-18T15:48:59.009Z,47.68
2018-04-18T15:51:28.603Z,47.71
2018-04-18T15:53:57.600Z,47.91
2018-04-18T15:56:28.233Z,47.53
2018-04-18T15:58:57.326Z,47.84
2018-04-18T16:01:26.418Z,48.12
2018-04-18T16:03:55.373Z,48.16
2018-04-18T16:06:26.864Z,49.97
2018-04-18T16:08:57.025Z,50.04
2018-04-18T16:11:25.912Z,50.98
2018-04-18T16:13:54.873Z,51.20
2018-04-18T16:16:24.779Z,50.39
2018-04-18T16:18:53.878Z,50.73
2018-04-18T16:21:22.978Z,51.23
2018-04-18T16:23:52.226Z,51.48
2018-04-18T16:26:21.993Z,51.40
2018-04-18T16:31:25.823Z,50.70
2018-04-18T16:33:54.850Z,51.10
2018-04-18T16:36:23.946Z,52.08
2018-04-18T16:38:53.102Z,53.10
2018-04-18T16:41:22.303Z,53.41
2018-04-18T16:43:54.168Z,54.12
2018-04-18T16:46:23.165Z,54.54
2018-04-18T16:48:52.153Z,54.95
2018-04-18T16:51:22.185Z,55.35
2018-04-18T16:53:51.246Z,55.58
2018-04-18T16:56:20.275Z,55.96
2018-04-18T17:01:24.829Z,55.57
2018-04-18T17:03:55.946Z,56.73
2018-04-18T17:06:26.020Z,57.23
2018-04-18T17:08:55.000Z,57.51
2018-04-18T17:11:23.964Z,58.23
2018-04-18T17:13:53.045Z,58.93
2018-04-18T17:16:21.964Z,59.55
2018-04-18T17:18:51.154Z,59.48
2018-04-18T17:21:21.223Z,59.42
2018-04-18T17:23:50.165Z,59.69
2018-04-18T17:26:19.153Z,60.42
2018-04-18T17:28:50.091Z,61.67
2018-04-18T17:31:20.519Z,61.91
2018-04-18T17:33:49.459Z,62.46
2018-04-18T17:36:18.568Z,62.59
2018-04-18T17:38:48.027Z,62.37
2018-04-18T17:41:17.882Z,62.60
2018-04-18T17:43:46.914Z,61.88
2018-04-18T17:46:15.919Z,60.98
2018-04-18T17:48:45.933Z,61.18
2018-04-18T17:51:20.454Z,61.98
2018-04-18T17:53:49.348Z,62.39
2018-04-18T17:56:18.341Z,63.02
2018-04-18T17:58:47.539Z,63.92
2018-04-18T18:01:17.251Z,64.65
2018-04-18T18:03:47.067Z,64.58
2018-04-18T18:06:16.985Z,65.18
2018-04-18T18:08:46.075Z,65.82
2018-04-18T18:11:15.216Z,64.62
2018-04-18T18:13:47.281Z,64.86
2018-04-18T18:16:16.746Z,65.21
2018-04-18T18:18:45.700Z,65.76
2018-04-18T18:21:14.726Z,65.61
2018-04-18T18:23:43.625Z,65.33
2018-04-18T18:26:14.069Z,65.90
2018-04-18T18:28:45.101Z,66.13
2018-04-18T18:31:14.606Z,65.82
2018-04-18T18:33:43.596Z,64.81
2018-04-18T18:36:13.450Z,64.57
2018-04-18T18:38:42.509Z,65.51
2018-04-18T18:41:11.400Z,65.90
2018-04-18T18:43:40.940Z,66.10
2018-04-18T18:46:10.741Z,65.08
2018-04-18T18:48:43.154Z,64.68
2018-04-18T18:51:12.067Z,64.64
2018-04-18T18:53:41.065Z,65.01
2018-04-18T18:56:11.752Z,65.79
2018-04-18T18:58:40.705Z,66.29
2018-04-18T19:01:10.003Z,66.84
2018-04-18T19:03:39.859Z,67.37
2018-04-18T19:06:08.975Z,67.73
2018-04-18T19:08:37.904Z,67.87
2018-04-18T19:11:07.010Z,68.09
2018-04-18T19:13:35.839Z,68.83
2018-04-18T19:16:04.884Z,68.96
2018-04-18T19:18:34.853Z,69.50
2018-04-18T19:21:03.899Z,69.64
2018-04-18T19:23:32.898Z,69.76
2018-04-18T19:26:02.769Z,69.59
2018-04-18T19:28:31.999Z,69.36
2018-04-18T19:31:01.046Z,69.36
2018-04-18T19:33:30.941Z,69.08
2018-04-18T19:36:00.132Z,68.76
2018-04-18T19:38:29.218Z,68.82
2018-04-18T19:40:59.754Z,69.11
2018-04-18T19:43:28.802Z,69.28
2018-04-18T19:45:57.900Z,69.92
2018-04-18T19:48:28.528Z,70.46
2018-04-18T19:50:57.685Z,70.64
2018-04-18T19:53:26.768Z,70.83
2018-04-18T19:55:58.422Z,71.08
2018-04-18T19:58:29.260Z,71.14
2018-04-18T20:00:58.286Z,70.88
2018-04-18T20:03:30.184Z,70.52
2018-04-18T20:05:59.170Z,70.70
2018-04-18T20:08:29.883Z,70.66
2018-04-18T20:13:33.318Z,70.70
2018-04-18T20:16:02.567Z,70.56
2018-04-18T20:18:31.553Z,70.52
2018-04-18T20:21:01.779Z,70.79
2018-04-18T20:23:30.786Z,71.25
2018-04-18T20:25:59.767Z,71.42
2018-04-18T20:28:28.761Z,71.99
2018-04-18T20:30:57.858Z,72.13
2018-04-18T20:33:29.815Z,72.32
2018-04-18T20:35:58.888Z,72.36
2018-04-18T20:38:29.341Z,72.37
2018-04-18T20:41:04.734Z,72.60
2018-04-18T20:43:33.676Z,72.98
2018-04-18T20:46:02.792Z,73.07
2018-04-18T20:48:31.962Z,73.60
2018-04-18T20:51:00.941Z,73.96
2018-04-18T20:53:29.866Z,73.75
2018-04-18T20:55:59.009Z,73.90
2018-04-18T20:58:28.003Z,74.54
2018-04-18T21:01:08.106Z,74.36
2018-04-18T21:03:37.351Z,74.51
2018-04-18T21:06:06.501Z,75.02
2018-04-18T21:08:36.716Z,75.22
2018-04-18T21:11:07.147Z,75.22
2018-04-18T21:13:36.247Z,75.37
2018-04-18T21:16:05.446Z,75.77
2018-04-18T21:18:34.330Z,76.03
2018-04-18T21:21:03.546Z,76.10
2018-04-18T21:23:34.267Z,76.05
2018-04-18T21:26:03.684Z,76.06
2018-04-18T21:28:32.782Z,76.38
2018-04-18T21:31:01.666Z,76.46
2018-04-18T21:33:30.553Z,76.36
2018-04-18T21:35:59.441Z,76.63
2018-04-18T21:38:30.387Z,76.78
2018-04-18T21:41:00.344Z,76.66
2018-04-18T21:43:29.347Z,76.84
2018-04-18T21:46:01.973Z,76.73
2018-04-18T21:48:31.998Z,76.66
2018-04-18T21:51:02.321Z,76.77
2018-04-18T21:53:33.869Z,76.99
2018-04-18T21:56:02.973Z,77.01
2018-04-18T21:58:32.739Z,76.98
2018-04-18T22:01:02.590Z,76.92
2018-04-18T22:03:31.639Z,77.25
2018-04-18T22:06:00.635Z,77.55
2018-04-18T22:08:34.715Z,77.50
2018-04-18T22:11:04.612Z,77.25
2018-04-18T22:13:34.318Z,77.17
2018-04-18T22:16:06.775Z,77.22
2018-04-18T22:18:35.842Z,77.30
2018-04-18T22:21:05.187Z,77.23
2018-04-18T22:26:11.041Z,77.11
2018-04-18T22:28:40.391Z,77.04
2018-04-18T22:31:09.342Z,76.90
2018-04-18T22:33:38.526Z,76.75
2018-04-18T22:36:07.451Z,76.47
2018-04-18T22:38:36.548Z,76.86
2018-04-18T22:41:08.181Z,76.94
2018-04-18T22:43:37.089Z,77.10
2018-04-18T22:46:06.927Z,77.58
2018-04-18T22:48:36.218Z,78.02
2018-04-18T22:51:05.206Z,78.53
2018-04-18T22:53:34.093Z,78.81
2018-04-18T22:56:03.346Z,78.36
2018-04-18T22:58:32.516Z,78.50
2018-04-18T23:01:02.246Z,78.51
2018-04-18T23:03:31.396Z,78.56
2018-04-18T23:06:00.395Z,78.48
2018-04-18T23:08:29.481Z,78.43
2018-04-18T23:10:58.379Z,77.91
2018-04-18T23:13:27.381Z,77.73
2018-04-18T23:15:57.864Z,77.64
2018-04-18T23:18:26.901Z,77.45
2018-04-18T23:20:55.894Z,76.99
2018-04-18T23:23:25.608Z,76.59
2018-04-18T23:25:54.909Z,76.85
2018-04-18T23:28:24.827Z,77.37
2018-04-18T23:30:53.845Z,77.63
2018-04-18T23:33:25.314Z,77.67
2018-04-18T23:35:54.271Z,77.45
2018-04-18T23:38:23.149Z,75.39
2018-04-18T23:40:54.062Z,74.35
2018-04-18T23:43:24.113Z,73.09
2018-04-18T23:45:53.114Z,72.27
2018-04-18T23:48:22.961Z,71.16
2018-04-18T23:50:51.963Z,70.58
2018-04-18T23:53:22.174Z,70.52
2018-04-18T23:55:52.001Z,70.23
2018-04-18T23:58:21.047Z,69.91
